sensor_id;sensor_type;location;lat;lon;timestamp;temperature;humidity
34460;DHT22;20704;51.260;22.558;2022-09-09T00:04:25;12.10;99.90
34460;DHT22;20704;51.260;22.558;2022-09-09T00:09:47;12.10;99.90
34460;DHT22;20704;51.260;22.558;2022-09-09T00:12:15;12.10;99.90
34460;DHT22;20704;51.260;22.558;2022-09-09T00:14:56;12.10;99.90
34460;DHT22;20704;51.260;22.558;2022-09-09T00:19:54;12.10;99.90
34460;DHT22;20704;51.260;22.558;2022-09-09T00:22:25;12.00;99.90
34460;DHT22;20704;51.260;22.558;2022-09-09T00:24:57;11.90;99.90
34460;DHT22;20704;51.260;22.558;2022-09-09T00:32:21;11.90;99.90
34460;DHT22;20704;51.260;22.558;2022-09-09T00:34:55;11.90;99.90
34460;DHT22;20704;51.260;22.558;2022-09-09T00:37:22;11.90;99.90
34460;DHT22;20704;51.260;22.558;2022-09-09T00:39:51;11.80;99.90
34460;DHT22;20704;51.260;22.558;2022-09-09T00:42:24;12.40;99.90
34460;DHT22;20704;51.260;22.558;2022-09-09T00:44:51;11.80;99.90
34460;DHT22;20704;51.260;22.558;2022-09-09T00:57:32;11.70;99.90
34460;DHT22;20704;51.260;22.558;2022-09-09T01:05:33;11.70;99.90
34460;DHT22;20704;51.260;22.558;2022-09-09T01:08:01;11.60;99.90
34460;DHT22;20704;51.260;22.558;2022-09-09T01:10:37;11.60;99.90
34460;DHT22;20704;51.260;22.558;2022-09-09T01:13:07;11.60;99.90
34460;DHT22;20704;51.260;22.558;2022-09-09T01:15:36;11.60;99.90
34460;DHT22;20704;51.260;22.558;2022-09-09T01:18:05;10.30;99.90
34460;DHT22;20704;51.260;22.558;2022-09-09T01:20:43;11.60;99.90
34460;DHT22;20704;51.260;22.558;2022-09-09T01:28:34;11.60;99.90
34460;DHT22;20704;51.260;22.558;2022-09-09T01:31:06;11.60;99.90
34460;DHT22;20704;51.260;22.558;2022-09-09T01:33:40;11.70;99.90
34460;DHT22;20704;51.260;22.558;2022-09-09T01:36:52;11.50;99.90
34460;DHT22;20704;51.260;22.558;2022-09-09T01:38:56;9.60;99.90
34460;DHT22;20704;51.260;22.558;2022-09-09T01:41:22;11.50;99.90
34460;DHT22;20704;51.260;22.558;2022-09-09T01:44:00;11.30;99.90
34460;DHT22;20704;51.260;22.558;2022-09-09T01:46:27;11.40;99.90
34460;DHT22;20704;51.260;22.558;2022-09-09T01:48:53;11.30;99.90
34460;DHT22;20704;51.260;22.558;2022-09-09T01:51:20;11.40;99.90
34460;DHT22;20704;51.260;22.558;2022-09-09T01:53:47;11.40;99.90
34460;DHT22;20704;51.260;22.558;2022-09-09T02:03:59;11.40;99.90
34460;DHT22;20704;51.260;22.558;2022-09-09T02:06:31;11.30;99.90
34460;DHT22;20704;51.260;22.558;2022-09-09T02:09:09;11.30;99.90
34460;DHT22;20704;51.260;22.558;2022-09-09T02:11:38;11.40;99.90
34460;DHT22;20704;51.260;22.558;2022-09-09T02:14:25;11.30;99.90
34460;DHT22;20704;51.260;22.558;2022-09-09T02:16:55;11.40;99.90
34460;DHT22;20704;51.260;22.558;2022-09-09T02:19:29;11.40;99.90
34460;DHT22;20704;51.260;22.558;2022-09-09T02:22:07;11.40;99.90
34460;DHT22;20704;51.260;22.558;2022-09-09T02:24:34;11.40;99.90
34460;DHT22;20704;51.260;22.558;2022-09-09T02:27:14;11.40;99.90
34460;DHT22;20704;51.260;22.558;2022-09-09T02:29:42;11.30;99.90
34460;DHT22;20704;51.260;22.558;2022-09-09T02:32:17;11.30;99.90
34460;DHT22;20704;51.260;22.558;2022-09-09T02:34:45;11.20;99.90
34460;DHT22;20704;51.260;22.558;2022-09-09T02:37:12;11.40;99.90
34460;DHT22;20704;51.260;22.558;2022-09-09T02:39:44;9.90;99.90
34460;DHT22;20704;51.260;22.558;2022-09-09T02:42:14;11.30;99.90
34460;DHT22;20704;51.260;22.558;2022-09-09T02:44:41;10.50;99.90
34460;DHT22;20704;51.260;22.558;2022-09-09T02:47:25;12.20;99.90
34460;DHT22;20704;51.260;22.558;2022-09-09T02:52:41;11.40;99.90
34460;DHT22;20704;51.260;22.558;2022-09-09T02:55:12;11.30;99.90
34460;DHT22;20704;51.260;22.558;2022-09-09T02:57:41;11.40;99.90
34460;DHT22;20704;51.260;22.558;2022-09-09T03:00:09;11.30;99.90
34460;DHT22;20704;51.260;22.558;2022-09-09T03:02:37;11.40;99.90
34460;DHT22;20704;51.260;22.558;2022-09-09T03:05:06;10.40;99.90
34460;DHT22;20704;51.260;22.558;2022-09-09T03:07:33;11.40;99.90
34460;DHT22;20704;51.260;22.558;2022-09-09T03:09:59;11.40;99.90
34460;DHT22;20704;51.260;22.558;2022-09-09T03:12:27;11.40;99.90
34460;DHT22;20704;51.260;22.558;2022-09-09T03:14:52;11.50;99.90
34460;DHT22;20704;51.260;22.558;2022-09-09T03:17:19;11.40;99.90
34460;DHT22;20704;51.260;22.558;2022-09-09T03:19:50;11.40;99.90
34460;DHT22;20704;51.260;22.558;2022-09-09T03:22:18;11.40;99.90
34460;DHT22;20704;51.260;22.558;2022-09-09T03:24:45;11.40;99.90
34460;DHT22;20704;51.260;22.558;2022-09-09T03:27:12;11.60;99.90
34460;DHT22;20704;51.260;22.558;2022-09-09T03:29:40;11.50;99.90
34460;DHT22;20704;51.260;22.558;2022-09-09T03:32:10;11.30;99.90
34460;DHT22;20704;51.260;22.558;2022-09-09T03:34:36;11.50;99.90
34460;DHT22;20704;51.260;22.558;2022-09-09T03:37:07;12.00;99.90
34460;DHT22;20704;51.260;22.558;2022-09-09T03:39:34;11.50;99.90
34460;DHT22;20704;51.260;22.558;2022-09-09T03:41:59;12.00;99.90
34460;DHT22;20704;51.260;22.558;2022-09-09T03:44:30;11.60;99.90
34460;DHT22;20704;51.260;22.558;2022-09-09T03:46:56;11.50;99.90
34460;DHT22;20704;51.260;22.558;2022-09-09T03:49:22;11.60;99.90
34460;DHT22;20704;51.260;22.558;2022-09-09T03:51:49;11.50;99.90
34460;DHT22;20704;51.260;22.558;2022-09-09T03:54:15;11.40;99.90
34460;DHT22;20704;51.260;22.558;2022-09-09T03:56:41;11.40;99.90
34460;DHT22;20704;51.260;22.558;2022-09-09T03:59:08;11.50;99.90
34460;DHT22;20704;51.260;22.558;2022-09-09T04:01:34;10.70;99.90
34460;DHT22;20704;51.260;22.558;2022-09-09T04:04:00;11.50;99.90
34460;DHT22;20704;51.260;22.558;2022-09-09T04:06:28;11.60;99.90
34460;DHT22;20704;51.260;22.558;2022-09-09T04:08:56;11.60;99.90
34460;DHT22;20704;51.260;22.558;2022-09-09T04:11:22;11.60;99.90
34460;DHT22;20704;51.260;22.558;2022-09-09T04:13:51;10.10;99.90
34460;DHT22;20704;51.260;22.558;2022-09-09T04:16:18;11.60;99.90
34460;DHT22;20704;51.260;22.558;2022-09-09T04:18:44;11.60;99.90
34460;DHT22;20704;51.260;22.558;2022-09-09T04:21:11;11.60;99.90
34460;DHT22;20704;51.260;22.558;2022-09-09T04:23:38;11.60;99.90
34460;DHT22;20704;51.260;22.558;2022-09-09T04:26:04;11.70;99.90
34460;DHT22;20704;51.260;22.558;2022-09-09T04:28:33;11.60;99.90
34460;DHT22;20704;51.260;22.558;2022-09-09T04:31:07;11.70;99.90
34460;DHT22;20704;51.260;22.558;2022-09-09T04:33:33;11.70;99.90
34460;DHT22;20704;51.260;22.558;2022-09-09T04:36:00;11.80;99.90
34460;DHT22;20704;51.260;22.558;2022-09-09T04:38:26;12.40;99.90
34460;DHT22;20704;51.260;22.558;2022-09-09T04:40:54;11.70;99.90
34460;DHT22;20704;51.260;22.558;2022-09-09T04:43:20;11.70;99.90
34460;DHT22;20704;51.260;22.558;2022-09-09T04:45:48;11.80;99.90
34460;DHT22;20704;51.260;22.558;2022-09-09T04:48:14;11.70;99.90
34460;DHT22;20704;51.260;22.558;2022-09-09T04:50:41;11.80;99.90
34460;DHT22;20704;51.260;22.558;2022-09-09T04:53:09;11.80;99.90
34460;DHT22;20704;51.260;22.558;2022-09-09T04:55:37;11.80;99.90
34460;DHT22;20704;51.260;22.558;2022-09-09T04:58:07;11.80;99.90
34460;DHT22;20704;51.260;22.558;2022-09-09T05:00:34;11.80;99.90
34460;DHT22;20704;51.260;22.558;2022-09-09T05:03:05;11.90;99.90
34460;DHT22;20704;51.260;22.558;2022-09-09T05:05:32;11.90;99.90
34460;DHT22;20704;51.260;22.558;2022-09-09T05:08:01;11.80;99.90
34460;DHT22;20704;51.260;22.558;2022-09-09T05:10:28;12.00;99.90
34460;DHT22;20704;51.260;22.558;2022-09-09T05:12:54;12.60;99.90
34460;DHT22;20704;51.260;22.558;2022-09-09T05:15:23;11.90;99.90
34460;DHT22;20704;51.260;22.558;2022-09-09T05:17:49;11.90;99.90
34460;DHT22;20704;51.260;22.558;2022-09-09T05:20:15;12.00;99.90
34460;DHT22;20704;51.260;22.558;2022-09-09T05:22:42;12.00;99.90
34460;DHT22;20704;51.260;22.558;2022-09-09T05:25:08;11.90;99.90
34460;DHT22;20704;51.260;22.558;2022-09-09T05:27:34;11.90;99.90
34460;DHT22;20704;51.260;22.558;2022-09-09T05:30:00;12.10;99.90
34460;DHT22;20704;51.260;22.558;2022-09-09T05:32:26;11.90;99.90
34460;DHT22;20704;51.260;22.558;2022-09-09T05:34:53;11.90;99.90
34460;DHT22;20704;51.260;22.558;2022-09-09T05:37:19;11.60;99.90
34460;DHT22;20704;51.260;22.558;2022-09-09T05:39:45;11.80;99.90
34460;DHT22;20704;51.260;22.558;2022-09-09T05:42:12;12.80;99.90
34460;DHT22;20704;51.260;22.558;2022-09-09T05:44:38;10.80;99.90
34460;DHT22;20704;51.260;22.558;2022-09-09T05:47:04;11.90;99.90
34460;DHT22;20704;51.260;22.558;2022-09-09T05:49:30;7.70;99.90
34460;DHT22;20704;51.260;22.558;2022-09-09T05:51:56;12.30;99.90
34460;DHT22;20704;51.260;22.558;2022-09-09T05:54:23;12.00;99.90
34460;DHT22;20704;51.260;22.558;2022-09-09T05:56:51;10.20;99.90
34460;DHT22;20704;51.260;22.558;2022-09-09T05:59:19;11.80;99.90
34460;DHT22;20704;51.260;22.558;2022-09-09T06:01:45;11.80;99.90
34460;DHT22;20704;51.260;22.558;2022-09-09T06:04:23;14.40;99.90
34460;DHT22;20704;51.260;22.558;2022-09-09T06:06:50;11.70;99.90
34460;DHT22;20704;51.260;22.558;2022-09-09T06:09:18;11.80;99.90
34460;DHT22;20704;51.260;22.558;2022-09-09T06:11:44;11.70;99.90
34460;DHT22;20704;51.260;22.558;2022-09-09T06:14:13;11.70;99.90
34460;DHT22;20704;51.260;22.558;2022-09-09T06:16:39;11.70;99.90
34460;DHT22;20704;51.260;22.558;2022-09-09T06:19:18;11.70;99.90
34460;DHT22;20704;51.260;22.558;2022-09-09T06:21:44;12.40;99.90
34460;DHT22;20704;51.260;22.558;2022-09-09T06:24:11;11.70;99.90
34460;DHT22;20704;51.260;22.558;2022-09-09T06:26:40;11.80;99.90
34460;DHT22;20704;51.260;22.558;2022-09-09T06:29:07;12.80;99.90
34460;DHT22;20704;51.260;22.558;2022-09-09T06:31:34;11.70;99.90
34460;DHT22;20704;51.260;22.558;2022-09-09T06:34:22;11.70;99.90
34460;DHT22;20704;51.260;22.558;2022-09-09T06:36:59;11.80;99.90
34460;DHT22;20704;51.260;22.558;2022-09-09T06:39:30;12.30;99.90
34460;DHT22;20704;51.260;22.558;2022-09-09T06:41:56;11.80;99.90
34460;DHT22;20704;51.260;22.558;2022-09-09T06:44:56;12.20;99.90
34460;DHT22;20704;51.260;22.558;2022-09-09T06:47:42;11.80;99.90
34460;DHT22;20704;51.260;22.558;2022-09-09T06:50:08;11.80;99.90
34460;DHT22;20704;51.260;22.558;2022-09-09T06:52:35;11.70;99.90
34460;DHT22;20704;51.260;22.558;2022-09-09T06:55:01;12.40;99.90
34460;DHT22;20704;51.260;22.558;2022-09-09T06:57:30;11.80;99.90
34460;DHT22;20704;51.260;22.558;2022-09-09T06:59:56;12.50;99.90
34460;DHT22;20704;51.260;22.558;2022-09-09T07:02:23;11.70;99.90
34460;DHT22;20704;51.260;22.558;2022-09-09T07:04:49;11.70;99.90
34460;DHT22;20704;51.260;22.558;2022-09-09T07:07:17;11.70;99.90
34460;DHT22;20704;51.260;22.558;2022-09-09T07:09:43;11.60;99.90
34460;DHT22;20704;51.260;22.558;2022-09-09T07:12:12;11.70;99.90
34460;DHT22;20704;51.260;22.558;2022-09-09T07:14:43;11.60;99.90
34460;DHT22;20704;51.260;22.558;2022-09-09T07:17:09;11.60;99.90
34460;DHT22;20704;51.260;22.558;2022-09-09T07:19:38;12.70;99.90
34460;DHT22;20704;51.260;22.558;2022-09-09T07:22:05;11.70;99.90
34460;DHT22;20704;51.260;22.558;2022-09-09T07:24:32;11.60;99.90
34460;DHT22;20704;51.260;22.558;2022-09-09T07:26:58;11.70;99.90
34460;DHT22;20704;51.260;22.558;2022-09-09T07:29:25;11.70;99.90
34460;DHT22;20704;51.260;22.558;2022-09-09T07:31:52;11.70;99.90
34460;DHT22;20704;51.260;22.558;2022-09-09T07:34:24;11.80;99.90
34460;DHT22;20704;51.260;22.558;2022-09-09T07:36:50;11.70;99.90
34460;DHT22;20704;51.260;22.558;2022-09-09T07:39:18;11.80;99.90
34460;DHT22;20704;51.260;22.558;2022-09-09T07:41:48;11.80;99.90
34460;DHT22;20704;51.260;22.558;2022-09-09T07:44:18;11.90;99.90
34460;DHT22;20704;51.260;22.558;2022-09-09T07:46:47;11.90;99.90
34460;DHT22;20704;51.260;22.558;2022-09-09T07:49:17;11.90;99.90
34460;DHT22;20704;51.260;22.558;2022-09-09T07:51:45;11.90;99.90
34460;DHT22;20704;51.260;22.558;2022-09-09T07:54:13;12.00;99.90
34460;DHT22;20704;51.260;22.558;2022-09-09T07:56:43;13.50;99.90
34460;DHT22;20704;51.260;22.558;2022-09-09T07:59:10;11.50;99.90
34460;DHT22;20704;51.260;22.558;2022-09-09T08:01:38;11.90;99.90
34460;DHT22;20704;51.260;22.558;2022-09-09T08:04:07;11.80;99.90
34460;DHT22;20704;51.260;22.558;2022-09-09T08:06:39;11.90;99.90
34460;DHT22;20704;51.260;22.558;2022-09-09T08:09:08;11.90;99.90
34460;DHT22;20704;51.260;22.558;2022-09-09T08:11:34;12.00;99.90
34460;DHT22;20704;51.260;22.558;2022-09-09T08:14:02;11.70;99.90
34460;DHT22;20704;51.260;22.558;2022-09-09T08:16:30;11.90;99.90
34460;DHT22;20704;51.260;22.558;2022-09-09T08:18:57;12.30;99.90
34460;DHT22;20704;51.260;22.558;2022-09-09T08:21:24;11.70;99.90
34460;DHT22;20704;51.260;22.558;2022-09-09T08:23:51;11.70;99.90
34460;DHT22;20704;51.260;22.558;2022-09-09T08:26:19;11.90;99.90
34460;DHT22;20704;51.260;22.558;2022-09-09T08:28:52;11.80;99.90
34460;DHT22;20704;51.260;22.558;2022-09-09T08:31:20;11.70;99.90
34460;DHT22;20704;51.260;22.558;2022-09-09T08:33:47;11.70;99.90
34460;DHT22;20704;51.260;22.558;2022-09-09T08:36:17;11.80;99.90
34460;DHT22;20704;51.260;22.558;2022-09-09T08:38:46;11.80;99.90
34460;DHT22;20704;51.260;22.558;2022-09-09T08:43:42;12.20;99.90
34460;DHT22;20704;51.260;22.558;2022-09-09T08:46:11;12.10;99.90
34460;DHT22;20704;51.260;22.558;2022-09-09T08:48:52;11.90;99.90
34460;DHT22;20704;51.260;22.558;2022-09-09T08:51:19;11.90;99.90
34460;DHT22;20704;51.260;22.558;2022-09-09T08:53:48;11.60;99.90
34460;DHT22;20704;51.260;22.558;2022-09-09T08:56:23;12.00;99.90
34460;DHT22;20704;51.260;22.558;2022-09-09T08:58:56;12.00;99.90
34460;DHT22;20704;51.260;22.558;2022-09-09T09:09:23;12.20;99.90
34460;DHT22;20704;51.260;22.558;2022-09-09T09:11:54;12.10;99.90
34460;DHT22;20704;51.260;22.558;2022-09-09T09:17:16;12.30;99.90
34460;DHT22;20704;51.260;22.558;2022-09-09T09:19:43;12.30;99.90
34460;DHT22;20704;51.260;22.558;2022-09-09T09:22:21;12.20;99.90
34460;DHT22;20704;51.260;22.558;2022-09-09T09:24:56;12.20;99.90
34460;DHT22;20704;51.260;22.558;2022-09-09T09:27:40;12.20;99.90
34460;DHT22;20704;51.260;22.558;2022-09-09T09:30:14;12.20;99.90
34460;DHT22;20704;51.260;22.558;2022-09-09T09:32:43;12.30;99.90
34460;DHT22;20704;51.260;22.558;2022-09-09T09:35:11;12.30;99.90
34460;DHT22;20704;51.260;22.558;2022-09-09T09:37:39;12.00;99.90
34460;DHT22;20704;51.260;22.558;2022-09-09T09:40:12;12.30;99.90
34460;DHT22;20704;51.260;22.558;2022-09-09T09:42:49;12.30;99.90
34460;DHT22;20704;51.260;22.558;2022-09-09T09:45:28;12.40;99.90
34460;DHT22;20704;51.260;22.558;2022-09-09T09:48:00;12.40;99.90
34460;DHT22;20704;51.260;22.558;2022-09-09T09:50:28;12.40;99.90
34460;DHT22;20704;51.260;22.558;2022-09-09T09:52:56;9.10;99.90
34460;DHT22;20704;51.260;22.558;2022-09-09T09:55:23;12.20;99.90
34460;DHT22;20704;51.260;22.558;2022-09-09T09:57:50;12.30;99.90
34460;DHT22;20704;51.260;22.558;2022-09-09T10:00:19;12.50;99.90
34460;DHT22;20704;51.260;22.558;2022-09-09T10:02:53;12.60;99.90
34460;DHT22;20704;51.260;22.558;2022-09-09T10:05:24;12.60;99.90
34460;DHT22;20704;51.260;22.558;2022-09-09T10:08:05;12.70;99.90
34460;DHT22;20704;51.260;22.558;2022-09-09T10:13:15;12.70;99.90
34460;DHT22;20704;51.260;22.558;2022-09-09T10:15:48;12.60;99.90
34460;DHT22;20704;51.260;22.558;2022-09-09T10:18:28;12.50;99.90
34460;DHT22;20704;51.260;22.558;2022-09-09T10:26:12;12.70;99.90
34460;DHT22;20704;51.260;22.558;2022-09-09T10:31:23;12.60;99.90
34460;DHT22;20704;51.260;22.558;2022-09-09T10:34:11;12.70;99.90
34460;DHT22;20704;51.260;22.558;2022-09-09T10:36:41;12.70;99.90
34460;DHT22;20704;51.260;22.558;2022-09-09T10:52:09;12.80;99.90
34460;DHT22;20704;51.260;22.558;2022-09-09T10:57:33;12.20;99.90
34460;DHT22;20704;51.260;22.558;2022-09-09T11:00:21;13.00;99.90
34460;DHT22;20704;51.260;22.558;2022-09-09T11:02:48;13.10;99.90
34460;DHT22;20704;51.260;22.558;2022-09-09T11:08:02;13.00;99.90
34460;DHT22;20704;51.260;22.558;2022-09-09T11:13:09;13.10;99.90
34460;DHT22;20704;51.260;22.558;2022-09-09T11:15:39;16.00;99.90
34460;DHT22;20704;51.260;22.558;2022-09-09T11:18:08;13.10;99.90
34460;DHT22;20704;51.260;22.558;2022-09-09T11:20:36;13.10;99.90
34460;DHT22;20704;51.260;22.558;2022-09-09T11:23:13;13.10;99.90
34460;DHT22;20704;51.260;22.558;2022-09-09T11:25:48;13.10;99.90
34460;DHT22;20704;51.260;22.558;2022-09-09T11:38:32;13.20;99.90
34460;DHT22;20704;51.260;22.558;2022-09-09T11:41:04;13.20;99.90
34460;DHT22;20704;51.260;22.558;2022-09-09T11:43:34;13.20;99.90
34460;DHT22;20704;51.260;22.558;2022-09-09T11:46:04;13.30;99.90
34460;DHT22;20704;51.260;22.558;2022-09-09T11:53:26;11.60;99.90
34460;DHT22;20704;51.260;22.558;2022-09-09T11:56:00;13.30;99.90
34460;DHT22;20704;51.260;22.558;2022-09-09T11:58:27;13.40;99.90
34460;DHT22;20704;51.260;22.558;2022-09-09T12:00:58;13.40;99.90
34460;DHT22;20704;51.260;22.558;2022-09-09T12:06:19;13.40;99.90
34460;DHT22;20704;51.260;22.558;2022-09-09T12:08:48;13.50;99.90
34460;DHT22;20704;51.260;22.558;2022-09-09T12:11:29;13.50;99.90
34460;DHT22;20704;51.260;22.558;2022-09-09T12:13:57;13.40;99.90
34460;DHT22;20704;51.260;22.558;2022-09-09T12:16:34;13.50;99.90
34460;DHT22;20704;51.260;22.558;2022-09-09T12:21:45;13.70;99.90
34460;DHT22;20704;51.260;22.558;2022-09-09T12:24:17;17.20;99.90
34460;DHT22;20704;51.260;22.558;2022-09-09T12:29:53;13.60;99.90
34460;DHT22;20704;51.260;22.558;2022-09-09T12:32:24;13.70;99.90
34460;DHT22;20704;51.260;22.558;2022-09-09T12:37:37;13.50;99.90
34460;DHT22;20704;51.260;22.558;2022-09-09T12:40:05;13.60;99.90
34460;DHT22;20704;51.260;22.558;2022-09-09T12:42:32;13.60;99.90
34460;DHT22;20704;51.260;22.558;2022-09-09T12:45:03;13.70;99.90
34460;DHT22;20704;51.260;22.558;2022-09-09T12:47:45;13.70;99.90
34460;DHT22;20704;51.260;22.558;2022-09-09T12:50:17;14.20;99.90
34460;DHT22;20704;51.260;22.558;2022-09-09T12:52:44;13.80;99.90
34460;DHT22;20704;51.260;22.558;2022-09-09T12:55:16;13.60;99.90
34460;DHT22;20704;51.260;22.558;2022-09-09T12:57:43;13.70;99.90
34460;DHT22;20704;51.260;22.558;2022-09-09T13:00:14;13.70;99.90
34460;DHT22;20704;51.260;22.558;2022-09-09T13:02:51;13.70;99.90
34460;DHT22;20704;51.260;22.558;2022-09-09T13:05:25;13.60;99.90
34460;DHT22;20704;51.260;22.558;2022-09-09T13:07:51;13.60;99.90
34460;DHT22;20704;51.260;22.558;2022-09-09T13:10:22;13.60;99.90
34460;DHT22;20704;51.260;22.558;2022-09-09T13:12:49;13.70;99.90
34460;DHT22;20704;51.260;22.558;2022-09-09T13:15:24;13.70;99.90
34460;DHT22;20704;51.260;22.558;2022-09-09T13:17:54;13.90;99.90
34460;DHT22;20704;51.260;22.558;2022-09-09T13:20:21;13.90;99.90
34460;DHT22;20704;51.260;22.558;2022-09-09T13:22:48;14.00;99.90
34460;DHT22;20704;51.260;22.558;2022-09-09T13:27:50;13.80;99.90
34460;DHT22;20704;51.260;22.558;2022-09-09T13:30:23;13.70;99.90
34460;DHT22;20704;51.260;22.558;2022-09-09T13:35:31;13.80;99.90
34460;DHT22;20704;51.260;22.558;2022-09-09T13:37:58;13.80;99.90
34460;DHT22;20704;51.260;22.558;2022-09-09T13:40:24;13.80;99.90
34460;DHT22;20704;51.260;22.558;2022-09-09T13:42:56;14.00;99.90
34460;DHT22;20704;51.260;22.558;2022-09-09T13:45:24;13.80;99.90
34460;DHT22;20704;51.260;22.558;2022-09-09T13:47:52;14.00;99.90
34460;DHT22;20704;51.260;22.558;2022-09-09T13:50:28;14.10;99.90
34460;DHT22;20704;51.260;22.558;2022-09-09T13:52:55;13.90;99.90
34460;DHT22;20704;51.260;22.558;2022-09-09T13:55:24;13.90;99.90
34460;DHT22;20704;51.260;22.558;2022-09-09T13:57:54;13.70;99.90
34460;DHT22;20704;51.260;22.558;2022-09-09T14:00:21;13.70;99.90
34460;DHT22;20704;51.260;22.558;2022-09-09T14:02:47;13.80;99.90
34460;DHT22;20704;51.260;22.558;2022-09-09T14:05:13;16.30;99.90
34460;DHT22;20704;51.260;22.558;2022-09-09T14:07:41;13.80;99.90
34460;DHT22;20704;51.260;22.558;2022-09-09T14:10:08;12.90;99.90
34460;DHT22;20704;51.260;22.558;2022-09-09T14:12:34;13.60;99.90
34460;DHT22;20704;51.260;22.558;2022-09-09T14:15:02;13.50;99.90
34460;DHT22;20704;51.260;22.558;2022-09-09T14:17:28;14.70;99.90
34460;DHT22;20704;51.260;22.558;2022-09-09T14:19:55;13.70;99.90
34460;DHT22;20704;51.260;22.558;2022-09-09T14:22:22;13.80;99.90
34460;DHT22;20704;51.260;22.558;2022-09-09T14:24:48;13.80;99.90
34460;DHT22;20704;51.260;22.558;2022-09-09T14:27:14;13.80;99.90
34460;DHT22;20704;51.260;22.558;2022-09-09T14:29:40;13.70;99.90
34460;DHT22;20704;51.260;22.558;2022-09-09T14:32:06;13.80;99.90
34460;DHT22;20704;51.260;22.558;2022-09-09T14:34:32;13.80;99.90
34460;DHT22;20704;51.260;22.558;2022-09-09T14:36:58;12.10;99.90
34460;DHT22;20704;51.260;22.558;2022-09-09T14:39:24;14.00;99.90
34460;DHT22;20704;51.260;22.558;2022-09-09T14:41:50;13.90;99.90
34460;DHT22;20704;51.260;22.558;2022-09-09T14:44:16;14.10;99.90
34460;DHT22;20704;51.260;22.558;2022-09-09T14:46:42;11.90;99.90
34460;DHT22;20704;51.260;22.558;2022-09-09T14:49:08;14.00;99.90
34460;DHT22;20704;51.260;22.558;2022-09-09T14:51:36;14.00;99.90
34460;DHT22;20704;51.260;22.558;2022-09-09T14:54:02;14.00;99.90
34460;DHT22;20704;51.260;22.558;2022-09-09T14:56:30;14.00;99.90
34460;DHT22;20704;51.260;22.558;2022-09-09T14:58:58;14.00;99.90
34460;DHT22;20704;51.260;22.558;2022-09-09T15:01:24;13.50;99.90
34460;DHT22;20704;51.260;22.558;2022-09-09T15:03:54;13.80;99.90
34460;DHT22;20704;51.260;22.558;2022-09-09T15:06:21;13.80;99.90
34460;DHT22;20704;51.260;22.558;2022-09-09T15:08:47;13.20;99.90
34460;DHT22;20704;51.260;22.558;2022-09-09T15:11:14;13.90;99.90
34460;DHT22;20704;51.260;22.558;2022-09-09T15:13:40;13.50;99.90
34460;DHT22;20704;51.260;22.558;2022-09-09T15:16:07;14.10;99.90
34460;DHT22;20704;51.260;22.558;2022-09-09T15:18:33;14.20;99.90
34460;DHT22;20704;51.260;22.558;2022-09-09T15:21:02;13.90;99.90
34460;DHT22;20704;51.260;22.558;2022-09-09T15:23:33;13.70;99.90
34460;DHT22;20704;51.260;22.558;2022-09-09T15:25:59;13.80;99.90
34460;DHT22;20704;51.260;22.558;2022-09-09T15:28:26;13.80;99.90
34460;DHT22;20704;51.260;22.558;2022-09-09T15:30:52;13.80;99.90
34460;DHT22;20704;51.260;22.558;2022-09-09T15:33:19;13.80;99.90
34460;DHT22;20704;51.260;22.558;2022-09-09T15:35:45;13.80;99.90
34460;DHT22;20704;51.260;22.558;2022-09-09T15:38:11;13.80;99.90
34460;DHT22;20704;51.260;22.558;2022-09-09T15:40:39;13.70;99.90
34460;DHT22;20704;51.260;22.558;2022-09-09T15:43:05;13.90;99.90
34460;DHT22;20704;51.260;22.558;2022-09-09T15:45:32;14.00;99.90
34460;DHT22;20704;51.260;22.558;2022-09-09T15:48:02;14.30;99.90
34460;DHT22;20704;51.260;22.558;2022-09-09T15:50:29;14.10;99.90
34460;DHT22;20704;51.260;22.558;2022-09-09T15:52:57;14.00;99.90
34460;DHT22;20704;51.260;22.558;2022-09-09T15:55:22;13.90;99.90
34460;DHT22;20704;51.260;22.558;2022-09-09T15:57:52;13.90;99.90
34460;DHT22;20704;51.260;22.558;2022-09-09T16:00:18;14.00;99.90
34460;DHT22;20704;51.260;22.558;2022-09-09T16:02:46;14.00;99.90
34460;DHT22;20704;51.260;22.558;2022-09-09T16:05:12;14.00;99.90
34460;DHT22;20704;51.260;22.558;2022-09-09T16:07:38;13.70;99.90
34460;DHT22;20704;51.260;22.558;2022-09-09T16:10:04;13.90;99.90
34460;DHT22;20704;51.260;22.558;2022-09-09T16:12:31;13.80;99.90
34460;DHT22;20704;51.260;22.558;2022-09-09T16:14:57;13.80;99.90
34460;DHT22;20704;51.260;22.558;2022-09-09T16:17:23;13.80;99.90
34460;DHT22;20704;51.260;22.558;2022-09-09T16:19:49;13.90;99.90
34460;DHT22;20704;51.260;22.558;2022-09-09T16:22:15;13.80;99.90
34460;DHT22;20704;51.260;22.558;2022-09-09T16:24:41;13.80;99.90
34460;DHT22;20704;51.260;22.558;2022-09-09T16:27:07;13.70;99.90
34460;DHT22;20704;51.260;22.558;2022-09-09T16:29:33;13.70;99.90
34460;DHT22;20704;51.260;22.558;2022-09-09T16:31:59;13.90;99.90
34460;DHT22;20704;51.260;22.558;2022-09-09T16:34:25;13.40;99.90
34460;DHT22;20704;51.260;22.558;2022-09-09T16:36:51;13.70;99.90
34460;DHT22;20704;51.260;22.558;2022-09-09T16:39:18;13.60;99.90
34460;DHT22;20704;51.260;22.558;2022-09-09T16:41:45;13.70;99.90
34460;DHT22;20704;51.260;22.558;2022-09-09T16:44:13;13.30;99.90
34460;DHT22;20704;51.260;22.558;2022-09-09T16:46:41;13.60;99.90
34460;DHT22;20704;51.260;22.558;2022-09-09T16:49:10;13.90;99.90
34460;DHT22;20704;51.260;22.558;2022-09-09T16:51:40;13.40;99.90
34460;DHT22;20704;51.260;22.558;2022-09-09T16:54:07;13.40;99.90
34460;DHT22;20704;51.260;22.558;2022-09-09T16:56:34;13.60;99.90
34460;DHT22;20704;51.260;22.558;2022-09-09T16:59:04;13.70;99.90
34460;DHT22;20704;51.260;22.558;2022-09-09T17:01:32;13.50;99.90
34460;DHT22;20704;51.260;22.558;2022-09-09T17:03:59;13.70;99.90
34460;DHT22;20704;51.260;22.558;2022-09-09T17:06:29;13.60;99.90
34460;DHT22;20704;51.260;22.558;2022-09-09T17:08:56;12.20;99.90
34460;DHT22;20704;51.260;22.558;2022-09-09T17:11:23;13.70;99.90
34460;DHT22;20704;51.260;22.558;2022-09-09T17:13:49;13.70;99.90
34460;DHT22;20704;51.260;22.558;2022-09-09T17:16:16;13.70;99.90
34460;DHT22;20704;51.260;22.558;2022-09-09T17:18:43;13.50;99.90
34460;DHT22;20704;51.260;22.558;2022-09-09T17:21:13;13.50;99.90
34460;DHT22;20704;51.260;22.558;2022-09-09T17:23:40;13.60;99.90
34460;DHT22;20704;51.260;22.558;2022-09-09T17:26:07;13.40;99.90
34460;DHT22;20704;51.260;22.558;2022-09-09T17:28:34;13.40;99.90